• Join FlightAware (Why Join?)
  • Login
  • US Flag 
09:07AM EDT


 

Airport Tracker/Info


-or-


 

Live Flight TrackerFlight Track Log ✈ N3738B ✈ 06-Jul-2013 ✈ KJFK - KLAS

Flight Track Log - Related Links

Times and Time Zones

All times are in EDT time to prevent confusion due to time zone crossing. See the N3738B flight status page for this flight to view local times or setup timezone preferences in your user account.

Time Position Orientation Groundspeed Altitude Reporting Facility
EDT Latitude Longitude Course Direction KTS MPH feet Rate Location/Type
08:24AM 40.6500 -73.8667 237° Southwest 201 231 1,800  Level New York TRACON
08:25AM 40.6000 -73.9167 217° Southwest 259 298 3,800 2,460 Climbing New York TRACON
08:26AM 40.4152 -74.1239 230° Southwest  Level FlightAware Approximate
08:26AM 40.5333 -73.9667 210° Southwest 272 313 6,800  Level New York TRACON
08:27AM 40.3375 -74.2487 232° Southwest  Level FlightAware Approximate
08:27AM 40.4667 -74.0167 210° Southwest 281 323 9,700  Level New York TRACON
08:28AM 40.2600 -74.3733 217° Southwest  Level FlightAware Approximate
08:28AM 40.4000 -74.0667 210° Southwest 306 352 11,100  Level New York TRACON
08:28AM 40.3539 -74.1156 219° Southwest 321 369 11,700 1,800 Climbing New York Center
08:29AM 40.1993 -74.5013 237° Southwest  Level FlightAware Approximate
08:29AM 40.3022 -74.2436 242° Southwest 338 389 14,200  Level New York Center
08:30AM 40.2617 -74.3478 243° Southwest 368 423 16,100 1,380 Climbing New York Center
08:31AM 40.2186 -74.4594 243° Southwest 368 423 17,100 1,140 Climbing New York Center
08:32AM 40.1956 -74.5914 257° West 368 423 18,400 1,560 Climbing New York Center
08:33AM 40.1847 -74.7322 264° West 387 445 20,300 1,680 Climbing New York Center
08:34AM 40.1758 -74.8703 265° West 393 452 21,800 1,380 Climbing New York Center
08:35AM 40.1622 -75.0189 263° West 398 458 23,200 1,320 Climbing New York Center
08:36AM 40.1525 -75.1703 265° West 410 472 24,500 1,200 Climbing New York Center
08:37AM 40.1381 -75.3242 263° West 427 491 25,600 1,140 Climbing New York Center
08:38AM 40.1261 -75.4753 264° West 427 491 26,900 1,080 Climbing New York Center
08:39AM 40.1114 -75.6319 263° West 432 497 27,900 1,140 Climbing New York Center
08:40AM 40.0717 -75.7836 251° West 439 505 29,200 1,080 Climbing New York Center
08:42AM 39.9794 -76.0681 247° West 450 518 31,200 900 Climbing Washington Center
08:43AM 39.9308 -76.2164 247° West 455 524 32,000 840 Climbing Washington Center
08:44AM 39.8800 -76.3675 246° West 455 524 32,900 1,020 Climbing Washington Center
08:45AM 39.8244 -76.5369 247° West 455 524 34,100 1,200 Climbing Washington Center
08:46AM 39.7753 -76.6822 246° West 455 524 35,300 960 Climbing Washington Center
08:47AM 39.7261 -76.8353 247° West 455 524 36,000 300 Climbing Washington Center
08:48AM 39.6786 -76.9800 247° West 455 524 36,000  Level Washington Center
08:49AM 39.6289 -77.1272 246° West 455 524 36,000  Level Washington Center
08:50AM 39.5811 -77.2717 247° West 455 524 36,000  Level Washington Center
08:51AM 39.5331 -77.4186 247° West 455 524 36,000  Level Washington Center
08:52AM 39.4850 -77.5678 247° West 455 524 36,000  Level Washington Center
08:53AM 39.4469 -77.7172 252° West 450 518 36,000  Level Washington Center
08:54AM 39.4131 -77.8667 254° West 439 505 36,000  Level Washington Center
08:55AM 39.3725 -78.0186 251° West 439 505 36,000  Level Washington Center
08:56AM 39.3361 -78.1675 253° West 439 505 36,000  Level Washington Center
08:57AM 39.2972 -78.3192 252° West 439 505 36,000  Level Washington Center
08:58AM 39.2583 -78.4678 251° West 439 505 36,000  Level Washington Center
08:59AM 39.2214 -78.6192 253° West 439 505 36,000  Level Washington Center
09:00AM 39.1822 -78.7675 251° West 439 505 36,000  Level Washington Center
09:01AM 39.1425 -78.9181 251° West 439 505 36,000  Level Washington Center
09:02AM 39.1008 -79.0714 251° West 444 511 36,000  Level Washington Center
09:03AM 39.0628 -79.2247 252° West 444 511 36,000  Level Washington Center
09:04AM 39.0228 -79.3778 251° West 451 519 36,000  Level Washington Center
09:05AM 38.9806 -79.5250 250° West 451 519 36,000  Level Washington Center
09:08AM 38.8869 -79.8739 251° West 445 512 36,000  Level Indianapolis Center
09:09AM 38.8419 -80.0389 251° West 442 509 36,000 -60 Level Indianapolis Center
09:10AM 38.8158 -80.1933 258° West 444 511 35,900  Descending Indianapolis Center
09:11AM 38.8239 -80.3536 274° West 451 519 36,000  Climbing Indianapolis Center
09:12AM 38.8325 -80.5122 274° West 446 513 36,000  Level Indianapolis Center
09:13AM 38.8394 -80.6697 273° West 444 511 36,000  Level Indianapolis Center
09:14AM 38.8461 -80.8258 273° West 440 506 36,000  Level Indianapolis Center
09:15AM 38.8525 -80.9842 273° West 443 510 36,000  Level Indianapolis Center
09:16AM 38.8603 -81.1719 273° West 440 506 36,000  Level Indianapolis Center
09:17AM 38.8678 -81.3269 274° West 440 506 36,000  Level Indianapolis Center
09:18AM 38.8739 -81.4831 273° West 445 512 36,000  Level Indianapolis Center
09:19AM 38.8786 -81.6369 272° West 440 506 36,000  Level Indianapolis Center
09:20AM 38.8842 -81.7925 273° West 441 507 36,000  Level Indianapolis Center
09:21AM 38.8892 -81.9481 272° West 441 507 36,000  Level Indianapolis Center
09:22AM 38.8950 -82.1356 272° West 441 507 36,000  Level Indianapolis Center
09:23AM 38.8994 -82.2931 272° West 441 507 36,000  Level Indianapolis Center
09:24AM 38.9042 -82.4511 272° West 444 511 36,000  Level Indianapolis Center
09:25AM 38.9086 -82.6078 272° West 441 507 36,000  Level Indianapolis Center
09:26AM 38.9131 -82.7644 272° West 439 505 36,000  Level Indianapolis Center
09:27AM 38.9161 -82.9225 271° West 443 510 36,000  Level Indianapolis Center
09:28AM 38.9197 -83.0772 272° West 437 503 36,000 -60 Level Indianapolis Center
09:29AM 38.9233 -83.2381 272° West 436 502 35,900 -60 Descending Indianapolis Center
09:30AM 38.9267 -83.3939 272° West 433 498 35,900  Level Indianapolis Center
09:31AM 38.9297 -83.5514 271° West 434 499 36,000  Climbing Indianapolis Center
09:32AM 38.9333 -83.7094 272° West 437 503 36,000  Level Indianapolis Center
09:33AM 38.9353 -83.8653 271° West 435 501 36,000  Level Indianapolis Center
09:34AM 38.9378 -84.0242 271° West 438 504 36,000  Level Indianapolis Center
09:35AM 38.9403 -84.2069 271° West 435 501 36,000  Level Indianapolis Center
09:36AM 38.9433 -84.3639 271° West 435 501 36,000  Level Indianapolis Center
09:36AM 38.9433 -84.3639 271° West 435 501 36,000  Level Indianapolis Center
09:38AM 38.9456 -84.5211 271° West 435 501 36,000  Level Indianapolis Center
09:38AM 38.9456 -84.5211 271° West 435 501 36,000 -120 Level Indianapolis Center
09:39AM 38.9467 -84.6742 271° West 427 491 35,900 -120 Descending Indianapolis Center
09:39AM 38.9467 -84.6742 271° West 427 491 35,900 60 Level Indianapolis Center
09:40AM 38.9481 -84.8283 271° West 427 491 36,000 60 Climbing Indianapolis Center
09:40AM 38.9481 -84.8283 271° West 427 491 36,000  Level Indianapolis Center
09:41AM 38.9492 -84.9725 271° West 424 488 36,000  Level Indianapolis Center
09:41AM 38.9492 -84.9725 271° West 424 488 36,000  Level Indianapolis Center
09:42AM 38.9506 -85.1258 271° West 428 493 36,000  Level Indianapolis Center
09:42AM 38.9506 -85.1258 271° West 428 493 36,000  Level Indianapolis Center
09:43AM 38.9508 -85.2769 270° West 425 489 36,000  Level Indianapolis Center
09:43AM 38.9508 -85.2769 270° West 425 489 36,000  Level Indianapolis Center
09:44AM 38.9528 -85.4294 271° West 427 491 36,000  Level Indianapolis Center
09:44AM 38.9528 -85.4294 271° West 427 491 36,000  Level Indianapolis Center
09:45AM 38.9525 -85.6153 270° West 431 496 36,000  Level Indianapolis Center
09:45AM 38.9525 -85.6153 270° West 431 496 36,000  Level Indianapolis Center
09:46AM 38.9519 -85.7681 270° West 430 495 36,000  Level Indianapolis Center
09:46AM 38.9519 -85.7681 270° West 430 495 36,000  Level Indianapolis Center
09:47AM 38.9531 -85.9225 271° West 432 497 36,000  Level Indianapolis Center
09:47AM 38.9531 -85.9225 271° West 432 497 36,000  Level Indianapolis Center
09:48AM 38.9528 -86.0767 270° West 432 497 36,000  Level Indianapolis Center
09:48AM 38.9528 -86.0767 270° West 432 497 36,000  Level Indianapolis Center
09:49AM 38.9517 -86.2322 270° West 435 501 36,000  Level Indianapolis Center
09:49AM 38.9517 -86.2322 270° West 435 501 36,000  Level Indianapolis Center
09:50AM 38.9508 -86.3875 270° West 435 501 36,000  Level Indianapolis Center
09:50AM 38.9508 -86.3875 270° West 435 501 36,000  Level Indianapolis Center
09:51AM 38.9508 -86.5450 270° West 440 506 36,000  Level Indianapolis Center
09:51AM 38.9508 -86.5450 270° West 440 506 36,000  Level Indianapolis Center
09:52AM 38.9494 -86.7039 269° West 439 505 36,000  Level Indianapolis Center
09:52AM 38.9494 -86.7039 269° West 439 505 36,000  Level Indianapolis Center
09:53AM 38.9481 -86.8625 269° West 443 510 36,000  Level Indianapolis Center
09:53AM 38.9481 -86.8625 269° West 443 510 36,000  Level Indianapolis Center
09:54AM 38.9472 -87.0531 270° West 446 513 36,000  Level Indianapolis Center
09:54AM 38.9472 -87.0531 270° West 446 513 36,000  Level Indianapolis Center
09:55AM 38.9450 -87.2114 269° West 445 512 36,000  Level Indianapolis Center
09:55AM 38.9450 -87.2114 269° West 445 512 36,000  Level Indianapolis Center
09:56AM 38.9425 -87.3706 269° West 446 513 36,000  Level Indianapolis Center
09:56AM 38.9425 -87.3706 269° West 446 513 36,000  Level Indianapolis Center
09:57AM 38.9403 -87.5297 269° West 447 514 36,000  Level Indianapolis Center
09:57AM 38.9403 -87.5297 269° West 447 514 36,000  Level Indianapolis Center
09:58AM 38.9375 -87.6875 269° West 445 512 36,000  Level Indianapolis Center
09:58AM 38.9375 -87.6875 269° West 445 512 36,000  Level Indianapolis Center
09:59AM 38.9353 -87.8450 269° West 443 510 36,000  Level Indianapolis Center
09:59AM 38.9353 -87.8450 269° West 443 510 36,000  Level Indianapolis Center
10:00AM 38.9322 -88.0019 269° West 441 507 36,000  Level Indianapolis Center
10:00AM 38.9322 -88.0019 269° West 441 507 36,000  Level Indianapolis Center
10:01AM 38.9300 -88.1589 269° West 441 507 36,000  Level Indianapolis Center
10:01AM 38.9300 -88.1589 269° West 441 507 36,000  Level Indianapolis Center
10:02AM 38.9269 -88.3164 269° West 440 506 36,000  Level Indianapolis Center
10:02AM 38.9269 -88.3164 269° West 440 506 36,000  Level Indianapolis Center
10:03AM 38.9214 -88.5083 268° West 446 513 36,000  Level Indianapolis Center
10:03AM 38.9214 -88.5083 268° West 446 513 36,000  Level Indianapolis Center
10:04AM 38.9181 -88.6678 269° West 446 513 36,000  Level Indianapolis Center
10:04AM 38.9181 -88.6678 269° West 446 513 36,000  Level Indianapolis Center
10:05AM 38.9144 -88.8292 268° West 453 521 36,000  Level Indianapolis Center
10:05AM 38.9144 -88.8292 268° West 453 521 36,000  Level Indianapolis Center
10:06AM 38.9106 -88.9897 268° West 449 517 36,000  Level Indianapolis Center
10:06AM 38.9106 -88.9897 268° West 449 517 36,000  Level Indianapolis Center
10:07AM 38.9064 -89.1514 268° West 453 521 36,000  Level Indianapolis Center
10:07AM 38.9064 -89.1514 268° West 453 521 36,000  Level Indianapolis Center
10:08AM 38.9014 -89.3136 268° West 453 521 36,000  Level Indianapolis Center
10:08AM 38.9014 -89.3136 268° West 453 521 36,000  Level Indianapolis Center
10:10AM 38.8950 -89.5428 268° West 458 527 36,000  Level Kansas City Center
10:10AM 38.8950 -89.5428 268° West 458 527 36,000  Level Kansas City Center
10:11AM 38.8883 -89.7108 267° West 466 536 36,000  Level Kansas City Center
10:11AM 38.8883 -89.7108 267° West 466 536 36,000  Level Kansas City Center
10:12AM 38.8822 -89.8786 267° West 470 541 36,000  Level Kansas City Center
10:12AM 38.8822 -89.8786 267° West 470 541 36,000  Level Kansas City Center
10:13AM 38.8786 -90.0403 268° West 472 543 36,000  Level Kansas City Center
10:13AM 38.8786 -90.0403 268° West 472 543 36,000  Level Kansas City Center
10:14AM 38.8739 -90.2100 268° West 475 547 36,000  Level Kansas City Center
10:14AM 38.8739 -90.2100 268° West 475 547 36,000  Level Kansas City Center
10:15AM 38.8675 -90.3800 267° West 476 548 36,000  Level Kansas City Center
10:15AM 38.8675 -90.3800 267° West 476 548 36,000  Level Kansas City Center
10:16AM 38.8503 -90.5817 264° West 484 557 36,000  Level Kansas City Center
10:16AM 38.8503 -90.5817 264° West 484 557 36,000  Level Kansas City Center
10:17AM 38.8278 -90.7453 260° West 485 558 36,000  Level Kansas City Center
10:17AM 38.8278 -90.7453 260° West 485 558 36,000  Level Kansas City Center
10:18AM 38.8056 -90.9097 260° West 478 550 36,000  Level Kansas City Center
10:18AM 38.8056 -90.9097 260° West 478 550 36,000  Level Kansas City Center
10:19AM 38.7847 -91.0761 261° West 477 549 36,000  Level Kansas City Center
10:19AM 38.7847 -91.0761 261° West 477 549 36,000  Level Kansas City Center
10:20AM 38.7622 -91.2433 260° West 477 549 36,000  Level Kansas City Center
10:20AM 38.7622 -91.2433 260° West 477 549 36,000  Level Kansas City Center
10:21AM 38.7400 -91.4097 260° West 478 550 36,000  Level Kansas City Center
10:21AM 38.7400 -91.4097 260° West 478 550 36,000  Level Kansas City Center
10:22AM 38.7128 -91.6075 260° West 474 545 36,000  Level Kansas City Center
10:22AM 38.7128 -91.6075 260° West 474 545 36,000  Level Kansas City Center
10:23AM 38.6883 -91.7853 260° West 476 548 36,000  Level Kansas City Center
10:23AM 38.6883 -91.7853 260° West 476 548 36,000  Level Kansas City Center
10:24AM 38.6636 -91.9536 259° West 481 554 36,000  Level Kansas City Center
10:24AM 38.6636 -91.9536 259° West 481 554 36,000  Level Kansas City Center
10:25AM 38.6389 -92.1217 259° West 482 555 36,000  Level Kansas City Center
10:25AM 38.6389 -92.1217 259° West 482 555 36,000  Level Kansas City Center
10:26AM 38.6144 -92.2875 259° West 480 552 36,000  Level Kansas City Center
10:26AM 38.6144 -92.2875 259° West 480 552 36,000  Level Kansas City Center
10:27AM 38.5900 -92.4522 259° West 476 548 36,000  Level Kansas City Center
10:27AM 38.5900 -92.4522 259° West 476 548 36,000  Level Kansas City Center
10:28AM 38.5656 -92.6169 259° West 474 545 36,000  Level Kansas City Center
10:28AM 38.5656 -92.6169 259° West 474 545 36,000  Level Kansas City Center
10:29AM 38.5408 -92.7817 259° West 474 545 36,000  Level Kansas City Center
10:29AM 38.5408 -92.7817 259° West 474 545 36,000  Level Kansas City Center
10:30AM 38.5111 -92.9783 259° West 474 545 36,000  Level Kansas City Center
10:30AM 38.5111 -92.9783 259° West 474 545 36,000  Level Kansas City Center
10:31AM 38.4867 -93.1381 259° West 466 536 36,000  Level Kansas City Center
10:31AM 38.4867 -93.1381 259° West 466 536 36,000  Level Kansas City Center
10:32AM 38.4619 -93.2969 259° West 460 529 36,000  Level Kansas City Center
10:32AM 38.4619 -93.2969 259° West 460 529 36,000  Level Kansas City Center
10:33AM 38.4381 -93.4547 259° West 457 526 36,000  Level Kansas City Center
10:33AM 38.4381 -93.4547 259° West 457 526 36,000  Level Kansas City Center
10:34AM 38.4139 -93.6114 259° West 452 520 36,000  Level Kansas City Center
10:34AM 38.4139 -93.6114 259° West 452 520 36,000  Level Kansas City Center
10:35AM 38.3886 -93.7689 258° West 453 521 36,000  Level Kansas City Center
10:35AM 38.3886 -93.7689 258° West 453 521 36,000  Level Kansas City Center
10:36AM 38.3647 -93.9269 259° West 454 522 36,000  Level Kansas City Center
10:36AM 38.3647 -93.9269 259° West 454 522 36,000  Level Kansas City Center
10:37AM 38.3369 -94.0964 258° West 457 526 36,000  Level Kansas City Center
10:37AM 38.3369 -94.0964 258° West 457 526 36,000  Level Kansas City Center
10:38AM 38.3078 -94.2761 258° West 460 529 36,000  Level Kansas City Center
10:38AM 38.3078 -94.2761 258° West 460 529 36,000  Level Kansas City Center
10:39AM 38.2817 -94.4294 258° West 461 531 36,000  Level Kansas City Center
10:39AM 38.2817 -94.4294 258° West 461 531 36,000  Level Kansas City Center
10:40AM 38.2689 -94.6047 265° West 454 522 36,000  Level Kansas City Center
10:40AM 38.2689 -94.6047 265° West 454 522 36,000  Level Kansas City Center
10:41AM 38.2642 -94.7544 268° West 445 512 36,000  Level Kansas City Center
10:41AM 38.2642 -94.7544 268° West 445 512 36,000  Level Kansas City Center
10:42AM 38.2594 -94.9056 268° West 444 511 36,000  Level Kansas City Center
10:42AM 38.2594 -94.9056 268° West 444 511 36,000  Level Kansas City Center
10:44AM 38.2536 -95.0803 268° West 443 510 36,000  Level Kansas City Center
10:44AM 38.2536 -95.0803 268° West 443 510 36,000  Level Kansas City Center
10:45AM 38.2481 -95.2322 267° West 444 511 36,000  Level Kansas City Center
10:45AM 38.2481 -95.2322 267° West 444 511 36,000  Level Kansas City Center
10:46AM 38.2411 -95.4086 267° West 445 512 36,000  Level Kansas City Center
10:46AM 38.2411 -95.4086 267° West 445 512 36,000  Level Kansas City Center
10:47AM 38.2353 -95.5606 267° West 448 516 36,000  Level Kansas City Center
10:47AM 38.2353 -95.5606 267° West 448 516 36,000  Level Kansas City Center
10:48AM 38.2289 -95.7386 267° West 449 517 36,000  Level Kansas City Center
10:48AM 38.2289 -95.7386 267° West 449 517 36,000  Level Kansas City Center
10:49AM 38.2222 -95.8894 267° West 446 513 36,000  Level Kansas City Center
10:49AM 38.2222 -95.8894 267° West 446 513 36,000  Level Kansas City Center
10:50AM 38.2156 -96.0397 267° West 445 512 36,000  Level Kansas City Center
10:50AM 38.2156 -96.0397 267° West 445 512 36,000  Level Kansas City Center
10:51AM 38.2083 -96.2153 267° West 443 510 36,000  Level Kansas City Center
10:51AM 38.2083 -96.2153 267° West 443 510 36,000  Level Kansas City Center
10:52AM 38.2017 -96.3661 267° West 446 513 36,000  Level Kansas City Center
10:52AM 38.2017 -96.3661 267° West 446 513 36,000  Level Kansas City Center
10:53AM 38.1939 -96.5183 266° West 446 513 36,000  Level Kansas City Center
10:53AM 38.1939 -96.5183 266° West 446 513 36,000  Level Kansas City Center
10:54AM 38.1867 -96.6750 267° West 445 512 36,000  Level Kansas City Center
10:54AM 38.1867 -96.6750 267° West 445 512 36,000  Level Kansas City Center
10:55AM 38.1775 -96.8619 266° West 444 511 36,000  Level Kansas City Center
10:55AM 38.1775 -96.8619 266° West 444 511 36,000  Level Kansas City Center
10:56AM 38.1694 -97.0181 266° West 444 511 36,000  Level Kansas City Center
10:56AM 38.1694 -97.0181 266° West 444 511 36,000  Level Kansas City Center
10:57AM 38.1617 -97.1742 266° West 445 512 36,000  Level Kansas City Center
10:57AM 38.1617 -97.1742 266° West 445 512 36,000  Level Kansas City Center
10:58AM 38.1531 -97.3306 266° West 445 512 36,000  Level Kansas City Center
10:58AM 38.1531 -97.3306 266° West 445 512 36,000  Level Kansas City Center
10:59AM 38.1431 -97.5081 266° West 444 511 36,000  Level Kansas City Center
10:59AM 38.1431 -97.5081 266° West 444 511 36,000  Level Kansas City Center
11:00AM 38.1339 -97.6653 266° West 447 514 36,000  Level Kansas City Center
11:00AM 38.1339 -97.6653 266° West 447 514 36,000  Level Kansas City Center
11:01AM 38.1258 -97.8119 266° West 449 517 36,000  Level Kansas City Center
11:01AM 38.1258 -97.8119 266° West 449 517 36,000  Level Kansas City Center
11:02AM 38.1178 -97.9719 266° West 453 521 36,000  Level Kansas City Center
11:02AM 38.1178 -97.9719 266° West 453 521 36,000  Level Kansas City Center
11:03AM 38.1067 -98.1558 266° West 454 522 36,000  Level Kansas City Center
11:03AM 38.1067 -98.1558 266° West 454 522 36,000  Level Kansas City Center
11:04AM 38.0981 -98.3006 266° West 451 519 36,000  Level Kansas City Center
11:04AM 38.0981 -98.3006 266° West 451 519 36,000  Level Kansas City Center
11:05AM 38.0875 -98.4581 265° West 451 519 36,000  Level Kansas City Center
11:05AM 38.0875 -98.4581 265° West 451 519 36,000  Level Kansas City Center
11:06AM 38.0753 -98.6456 265° West 446 513 36,000  Level Kansas City Center
11:06AM 38.0753 -98.6456 265° West 446 513 36,000  Level Kansas City Center
11:07AM 38.0650 -98.8017 265° West 446 513 36,000  Level Kansas City Center
11:07AM 38.0650 -98.8017 265° West 446 513 36,000  Level Kansas City Center
11:08AM 38.0547 -98.9578 265° West 445 512 36,000  Level Kansas City Center
11:08AM 38.0547 -98.9578 265° West 445 512 36,000  Level Kansas City Center
11:09AM 38.0442 -99.1139 265° West 444 511 36,000  Level Kansas City Center
11:09AM 38.0442 -99.1139 265° West 444 511 36,000  Level Kansas City Center
11:10AM 38.0331 -99.2700 265° West 445 512 36,000  Level Kansas City Center
11:10AM 38.0331 -99.2700 265° West 445 512 36,000 360 Level Kansas City Center
11:11AM 38.0206 -99.4275 264° West 448 516 36,400 360 Climbing Kansas City Center
11:11AM 38.0206 -99.4275 264° West 448 516 36,400 1,140 Level Kansas City Center
11:12AM 38.0086 -99.6056 265° West 449 517 37,600 1,140 Climbing Kansas City Center
11:12AM 38.0086 -99.6056 265° West 449 517 37,600 360 Level Kansas City Center
11:13AM 37.9967 -99.7778 265° West 442 509 38,000 360 Climbing Kansas City Center
11:13AM 37.9967 -99.7778 265° West 442 509 38,000  Level Kansas City Center
11:14AM 37.9850 -99.9247 264° West 441 507 38,000  Level Kansas City Center
11:14AM 37.9850 -99.9247 264° West 441 507 38,000  Level Kansas City Center
11:15AM 37.9703 -100.0964 264° West 439 505 38,000  Level Kansas City Center
11:15AM 37.9703 -100.0964 264° West 439 505 38,000  Level Kansas City Center
11:16AM 37.9597 -100.2425 265° West 437 503 38,000  Level Kansas City Center
11:16AM 37.9597 -100.2425 265° West 437 503 38,000  Level Kansas City Center
11:18AM 37.9450 -100.4108 264° West 433 498 38,000  Level Kansas City Center
11:18AM 37.9450 -100.4108 264° West 433 498 38,000  Level Kansas City Center
11:19AM 37.9342 -100.5550 265° West 431 496 38,000  Level Kansas City Center
11:19AM 37.9342 -100.5550 265° West 431 496 38,000  Level Kansas City Center
11:20AM 37.9206 -100.7244 264° West 436 502 38,000  Level Kansas City Center
11:20AM 37.9206 -100.7244 264° West 436 502 38,000  Level Kansas City Center
11:26AM 37.8303 -101.6725 263° West 438 504 38,000  Level Denver Center
11:27AM 37.8158 -101.8189 263° West 439 505 38,000  Level Kansas City Center
11:28AM 37.7983 -101.9883 263° West 436 502 38,000  Level Kansas City Center
11:29AM 37.7842 -102.1319 263° West 433 498 38,000  Level Kansas City Center
11:30AM 37.7694 -102.2769 263° West 434 499 38,000  Level Kansas City Center
11:31AM 37.7528 -102.4450 263° West 433 498 38,000  Level Kansas City Center
11:32AM 37.7367 -102.5883 262° West 432 497 38,000  Level Kansas City Center
11:33AM 37.7189 -102.7550 262° West 430 495 38,000  Level Kansas City Center
11:34AM 37.7028 -102.9094 263° West 435 501 38,000  Level Denver Center
11:35AM 37.6842 -103.0767 262° West 433 498 38,000  Level Denver Center
11:36AM 37.6681 -103.2189 262° West 428 493 38,000  Level Denver Center
11:37AM 37.6161 -103.3744 247° West 430 495 38,000  Level Denver Center
11:38AM 37.5706 -103.5089 247° West 433 498 38,000  Level Denver Center
11:39AM 37.5192 -103.6642 247° West 430 495 38,000  Level Denver Center
11:40AM 37.4736 -103.7989 247° West 433 498 38,000  Level Denver Center
11:41AM 37.4206 -103.9594 247° West 438 504 38,000  Level Denver Center
11:42AM 37.3967 -104.1061 258° West 437 503 38,000  Level Denver Center
11:43AM 37.3775 -104.2511 261° West 435 501 38,000  Level Denver Center
11:44AM 37.3533 -104.4175 260° West 433 498 38,000  Level Denver Center
11:46AM 37.3325 -104.5600 260° West 433 498 38,000  Level Denver Center
11:47AM 37.3078 -104.7256 259° West 432 497 38,000  Level Denver Center
11:48AM 37.2856 -104.8672 259° West 431 496 38,000  Level Denver Center
11:49AM 37.2606 -105.0322 259° West 431 496 38,000  Level Denver Center
11:50AM 37.2394 -105.1725 259° West 429 494 38,000  Level Denver Center
11:51AM 37.2175 -105.3150 259° West 432 497 38,000  Level Denver Center
11:52AM 37.1914 -105.4808 259° West 434 499 38,000  Level Denver Center
11:53AM 37.1694 -105.6217 259° West 431 496 38,000  Level Denver Center
11:54AM 37.1433 -105.7861 259° West 430 495 38,000  Level Denver Center
11:55AM 37.1167 -105.9453 258° West 430 495 38,000  Level Denver Center
11:56AM 37.0953 -106.0858 259° West 429 494 38,000  Level Denver Center
11:57AM 37.0725 -106.2247 258° West 427 491 38,000  Level Denver Center
11:58AM 37.0456 -106.3864 258° West 425 489 38,000  Level Denver Center
11:59AM 37.0219 -106.5239 258° West 424 488 38,000  Level Denver Center
12:00PM 36.9967 -106.6850 259° West 423 487 38,000  Level Denver Center
12:01PM 36.9733 -106.8222 258° West 422 486 38,000  Level Denver Center
12:02PM 36.9458 -106.9825 258° West 422 486 38,000  Level Denver Center
12:03PM 36.9219 -107.1197 258° West 423 487 38,000  Level Denver Center
12:04PM 36.8944 -107.2814 258° West 426 490 38,000  Level Denver Center
12:05PM 36.8692 -107.4192 257° West 427 491 38,000  Level Denver Center
12:06PM 36.8408 -107.5797 258° West 424 488 38,000  Level Denver Center
12:07PM 36.8172 -107.7189 258° West 428 493 38,000  Level Denver Center
12:08PM 36.7889 -107.8786 258° West 424 488 38,000  Level Denver Center
12:09PM 36.7642 -108.0136 257° West 420 483 38,000  Level Denver Center
12:10PM 36.7358 -108.1722 257° West 419 482 38,000  Level Denver Center
12:11PM 36.7119 -108.3064 258° West 416 479 38,000  Level Denver Center
12:12PM 36.6839 -108.4642 258° West 419 482 38,000  Level Denver Center
12:13PM 36.6594 -108.5978 257° West 417 480 38,000  Level Denver Center
12:14PM 36.6297 -108.7547 257° West 418 481 38,000  Level Denver Center
12:16PM 36.6033 -108.8881 256° West 418 481 38,000  Level Denver Center
12:17PM 36.5739 -109.0444 257° West 419 482 38,000  Level Denver Center
12:18PM 36.5439 -109.2028 257° West 421 484 38,000  Level Denver Center
12:19PM 36.5133 -109.3622 257° West 426 490 38,000  Level Denver Center
12:20PM 36.4872 -109.4981 257° West 424 488 38,000  Level Denver Center
12:21PM 36.4564 -109.6564 256° West 424 488 38,000  Level Denver Center
12:22PM 36.4286 -109.7917 256° West 422 486 38,000  Level Denver Center
12:23PM 36.3989 -109.9486 257° West 420 483 38,000  Level Denver Center
12:24PM 36.3725 -110.0825 256° West 418 481 38,000 -240 Level Denver Center
12:25PM 36.3447 -110.2231 256° West 421 484 37,600 -480 Descending Denver Center
12:26PM 36.3156 -110.3633 256° West 420 483 37,100 -540 Descending Denver Center
12:27PM 36.2803 -110.5347 256° West 425 489 36,600 -480 Descending Denver Center
12:28PM 36.2506 -110.6781 256° West 429 494 36,100 -480 Descending Denver Center
12:29PM 36.2214 -110.8228 256° West 432 497 35,700 -780 Descending Denver Center
12:30PM 36.1911 -110.9675 256° West 433 498 34,600 -1,920 Descending Denver Center
12:31PM 36.1606 -111.1158 256° West 441 507 31,800 -2,280 Descending Denver Center
12:32PM 36.1278 -111.2667 255° West 450 518 30,000 -900 Descending Denver Center
12:33PM 36.0908 -111.4458 256° West 448 516 30,000  Level Denver Center
12:34PM 36.0600 -111.5889 255° West 436 502 30,000  Level Denver Center
12:35PM 36.0347 -111.7031 255° West 427 491 30,000  Level Los Angeles Center
12:36PM 36.0042 -111.8442 255° West 426 490 30,000 -60 Level Los Angeles Center
12:37PM 35.9689 -112.0061 255° West 423 487 29,900 -300 Descending Los Angeles Center
12:38PM 35.9392 -112.1461 255° West 425 489 29,400 -480 Descending Los Angeles Center
12:39PM 35.9089 -112.2836 255° West 420 483 29,000 -480 Descending Los Angeles Center
12:40PM 35.8783 -112.4228 255° West 423 487 28,500 -540 Descending Los Angeles Center
12:41PM 35.8417 -112.5894 255° West 425 489 28,000 -300 Descending Los Angeles Center
12:42PM 35.8106 -112.7269 254° West 422 486 28,000  Level Los Angeles Center
12:44PM 35.7806 -112.8622 255° West 416 479 28,000  Level Los Angeles Center
12:45PM 35.7506 -112.9981 255° West 416 479 28,000 -360 Level Los Angeles Center
12:46PM 35.7136 -113.1606 254° West 418 481 27,300 -840 Descending Los Angeles Center
12:47PM 35.6839 -113.2889 254° West 404 465 26,300 -1,020 Descending Los Angeles Center
12:48PM 35.6542 -113.4147 254° West 392 451 25,300 -1,080 Descending Los Angeles Center
12:49PM 35.6314 -113.5439 258° West 395 455 24,100 -1,440 Descending Los Angeles Center
12:50PM 35.6481 -113.6792 279° West 404 465 22,400 -2,220 Descending Los Angeles Center
12:51PM 35.6719 -113.8503 280° West 424 488 19,500 -2,580 Descending Los Angeles Center
12:52PM 35.6892 -113.9858 279° West 411 473 17,100 -2,220 Descending Los Angeles Center
12:53PM 35.7067 -114.1114 280° West 384 442 15,000 -2,220 Descending Los Angeles Center
12:53PM 35.7167 -114.2017 278° West 387 445 13,500 -1,800 Descending Los Angeles Center
12:54PM 35.7331 -114.3128 280° West 365 420 12,300 -1,020 Descending Los Angeles Center
12:55PM 35.7397 -114.3619 279° West 352 405 12,100 -240 Descending Los Angeles Center
12:56PM 35.8114 -114.4156 329° Northwest 321 369 12,000 -240 Descending Los Angeles Center
12:57PM 35.8775 -114.4467 339° North 317 365 11,700 -780 Descending Los Angeles Center
12:58PM 35.9831 -114.4958 339° North 290 334 10,500 -840 Descending Los Angeles Center
12:59PM 36.0403 -114.5381 329° Northwest 255 293 10,000 -840 Descending Los Angeles Center
01:00PM 36.0569 -114.6208 284° West 245 282 8,800 -1,020 Descending Los Angeles Center
01:01PM 36.0714 -114.7033 282° West 244 281 8,000 -720 Descending Los Angeles Center
01:02PM 36.0761 -114.7878 274° West 244 281 7,400 960 Descending Los Angeles Center
01:03PM 36.0742 -114.8683 268° West 241 277 10,000 -1,200 Climbing Los Angeles Center
01:04PM 36.0739 -114.9503 270° West 238 274 4,900 -3,180 Descending Los Angeles Center
01:05PM 36.0744 -115.0364 270° West 224 258 3,500 -1,080 Descending Los Angeles Center
01:07PM 36.0739 -115.1078 269° West 163 188 2,400 -660 Descending Los Angeles Center
01:08PM 36.0742 -115.1389 271° West 177 204 2,100 -360 Descending Los Angeles Center